Fairhaven, Washington
Current Conditions -  °F | °C
As of 3:53 PM on Friday 28 Nov 2014 (Local Time) from KBLI Reporting Station
Overcast Overcast  
Wind Chill:   Ceiling: 5500
Heat Index:   Visibility: 10mi
Dew Point:   Wind: 3mph
Humidity: 67%   Direction: 310°NW
Pressure: 29.46"   Gusts: NA
Location:  48.7531°N, 122.502°W
Report Text: KBLI 282353Z 31003KT 10SM FEW034 OVC055 06/00 A2946 RMK AO2 SLP984 T00560000 10072 20056 56013
Loading
Personal Weather Stations






























Interactive Weather Map New forecast layout! Learn more

10-Day Weather Forecast

Advertisements
Track Severe Weather on mobile